KBYS

Bicycle Lake AAF Airport

Fort Irwin/Barstow, California, USA

KBYS 110855Z AUTO 00000KT 10SM CLR 11/M21 A3032 RMK AO2 SLP263 WND DATA ESTMD T01071207 57005 PWINO $

Observed Flight Rules
Dec-11 @ 08:55 UTC (20 minutes ago) Visual Flight Rules
Wind Visibility Clouds
Calm 10 miles
  • Clear skies
Temperatures Readings
Current 11°C / 52°F
Dewpoint -21°C / -6°F
Humidity 9%
Altimeter 30.32" Hg
Pressure 1026.3 hPa
Elevation 716
Observed Flight Rules
Dec-11 @ 08:55 UTC
(20 minutes ago)
VFR
Wind Visibility
Calm 10 miles
Clouds
  • Clear skies
Temperature Dewpoint
11°C / 52°F -21°C / -6°F
Humidity Altimeter Pressure
9% 30.32" Hg 1026.3 hPa